Time;durP1;ratioP1;P1;durP2;ratioP2;P2;SDS_P1;SDS_P2;PMS_P1;PMS_P2;Temp;Humidity;BMP_temperature;BMP_pressure;BME280_temperature;BME280_humidity;BME280_pressure;Samples;Min_cycle;Max_cycle;Signal;HPM_P1;HPM_P2
2022/09/09 00:00:11;;;;;;;8.65;7.57;;;;;;;17.81;61.46;95040.31;5110884;28;20035;-76
2022/09/09 00:02:38;;;;;;;8.38;7.32;;;;;;;17.79;61.30;95035.22;5093411;28;20042;-76
2022/09/09 00:05:40;;;;;;;8.63;7.80;;;;;;;17.82;61.34;95037.50;5095537;28;20512;-76
2022/09/09 00:08:07;;;;;;;8.63;7.50;;;;;;;17.77;61.30;95033.69;5131620;27;20122;-76
2022/09/09 00:10:36;;;;;;;8.57;7.57;;;;;;;17.79;61.43;95035.22;5111995;28;20114;-76
2022/09/09 00:13:23;;;;;;;9.40;7.22;;;;;;;17.78;61.35;95030.94;5096153;28;20042;-76
2022/09/09 00:16:02;;;;;;;7.75;6.95;;;;;;;17.70;61.51;95024.84;5130160;28;20046;-76
2022/09/09 00:18:39;;;;;;;8.75;7.85;;;;;;;17.80;61.32;95038.66;5112530;27;20340;-76
2022/09/09 00:21:05;;;;;;;8.23;7.47;;;;;;;17.82;61.26;95041.94;5113216;28;20489;-76
2022/09/09 00:23:39;;;;;;;8.52;6.85;;;;;;;17.74;61.38;95034.84;5113176;28;20031;-76
2022/09/09 00:26:10;;;;;;;8.40;7.55;;;;;;;17.79;61.43;95032.56;5096959;28;20046;-76
2022/09/09 00:28:41;;;;;;;8.32;7.53;;;;;;;17.69;61.70;95013.53;5125558;27;20073;-76
2022/09/09 00:31:16;;;;;;;7.97;7.00;;;;;;;17.72;61.62;95021.06;5099528;27;20058;-76
2022/09/09 00:33:42;;;;;;;8.57;7.47;;;;;;;17.75;61.54;95017.31;5116730;27;20050;-76
2022/09/09 00:36:15;;;;;;;9.27;7.82;;;;;;;17.72;61.50;95009.72;5116272;27;20481;-76
2022/09/09 00:38:47;;;;;;;8.18;7.47;;;;;;;17.71;61.62;95008.91;5112498;28;20512;-76
2022/09/09 00:41:22;;;;;;;9.75;8.15;;;;;;;17.61;61.91;94997.78;5129982;27;20032;-76
2022/09/09 00:44:18;;;;;;;8.27;7.40;;;;;;;17.58;62.08;94993.66;5095500;28;20051;-76
2022/09/09 00:47:03;;;;;;;7.93;7.13;;;;;;;17.51;62.30;94991.88;5124024;27;20104;-76
2022/09/09 00:50:13;;;;;;;9.23;7.72;;;;;;;17.39;62.91;94980.88;5116833;27;20034;-76
2022/09/09 00:53:04;;;;;;;9.70;7.80;;;;;;;17.32;63.37;94987.75;5113498;27;20523;-76
2022/09/09 00:55:45;;;;;;;8.75;7.93;;;;;;;17.30;63.49;94992.34;5120934;27;20030;-76
2022/09/09 00:58:10;;;;;;;10.40;8.10;;;;;;;17.25;63.56;94992.03;5115576;27;20157;-76
2022/09/09 01:00:40;;;;;;;8.90;8.10;;;;;;;17.19;63.74;94988.25;5132986;27;20032;-76
2022/09/09 01:03:17;;;;;;;10.85;8.00;;;;;;;17.19;63.83;94988.25;5115760;27;20031;-76
2022/09/09 01:06:01;;;;;;;9.15;7.68;;;;;;;17.18;63.96;94991.84;5116617;27;20060;-76
2022/09/09 01:08:39;;;;;;;10.07;8.52;;;;;;;17.20;63.62;94992.53;5095936;28;20035;-76
2022/09/09 01:11:06;;;;;;;8.57;7.68;;;;;;;17.17;63.83;94992.84;5112147;28;20043;-76
2022/09/09 01:13:34;;;;;;;8.88;8.02;;;;;;;17.26;63.45;95002.38;5117765;27;20401;-76
2022/09/09 01:16:05;;;;;;;8.90;8.07;;;;;;;17.25;63.53;94998.09;5115533;27;20023;-76
2022/09/09 01:18:39;;;;;;;;;;;;;;;17.27;63.37;95006.63;5133225;27;20031;-76
2022/09/09 01:21:33;;;;;;;8.57;7.68;;;;;;;17.20;63.74;95008.28;5132458;27;19971;-76
2022/09/09 01:24:29;;;;;;;8.48;7.68;;;;;;;17.20;63.67;95006.47;5115008;27;20073;-76
2022/09/09 01:26:58;;;;;;;8.93;8.02;;;;;;;17.15;63.66;94997.44;5113103;28;20051;-76
2022/09/09 01:29:23;;;;;;;8.75;7.95;;;;;;;17.20;63.50;95001.22;5111185;28;20153;-76
2022/09/09 01:31:59;;;;;;;8.45;7.45;;;;;;;17.21;63.38;94996.78;5100205;27;20023;-76
2022/09/09 01:34:29;;;;;;;11.02;8.10;;;;;;;17.24;63.20;94990.38;5116089;27;20034;-76
2022/09/09 01:37:04;;;;;;;8.53;7.73;;;;;;;17.26;63.09;94989.22;5115581;27;20183;-76
2022/09/09 01:39:29;;;;;;;8.52;7.72;;;;;;;17.11;63.46;94978.56;5098824;27;20031;-76
2022/09/09 01:41:55;;;;;;;10.85;7.53;;;;;;;17.12;63.87;95003.00;5118626;27;20108;-76
2022/09/09 01:44:21;;;;;;;9.23;8.15;;;;;;;17.05;64.11;95002.84;5094315;28;20079;-76
2022/09/09 01:46:46;;;;;;;9.10;8.07;;;;;;;16.98;64.02;94992.16;5094583;28;20031;-76
2022/09/09 01:49:12;;;;;;;10.02;8.25;;;;;;;17.07;64.16;95015.78;5111393;28;20031;-76
2022/09/09 01:51:38;;;;;;;8.70;7.88;;;;;;;17.08;64.07;95017.44;5130246;27;20485;-76
2022/09/09 01:54:05;;;;;;;9.48;7.88;;;;;;;17.03;63.90;95011.88;5114736;27;20051;-76
2022/09/09 01:56:52;;;;;;;10.25;8.07;;;;;;;16.98;64.02;95010.53;5114779;27;20034;-76
2022/09/09 01:59:35;;;;;;;10.10;7.80;;;;;;;16.87;64.35;95016.09;5125552;27;20035;-76
2022/09/09 02:02:01;;;;;;;9.13;8.10;;;;;;;16.84;64.57;95011.16;5112442;28;20032;-76
2022/09/09 02:04:36;;;;;;;8.60;7.80;;;;;;;16.84;64.56;95011.16;5112266;28;20057;-76
2022/09/09 02:07:01;;;;;;;8.73;7.88;;;;;;;16.89;64.58;95018.56;5112347;28;20024;-76
2022/09/09 02:09:27;;;;;;;9.63;8.70;;;;;;;16.85;64.67;95018.03;5126210;27;20046;-76
2022/09/09 02:11:58;;;;;;;10.00;8.13;;;;;;;16.83;64.66;95009.53;5114246;27;20109;-76
2022/09/09 02:14:27;;;;;;;9.48;8.10;;;;;;;16.77;64.51;95006.72;5131425;27;20390;-76
2022/09/09 02:17:04;;;;;;;10.23;7.85;;;;;;;16.84;64.66;95011.16;5095748;27;20056;-76
2022/09/09 02:19:33;;;;;;;11.02;8.15;;;;;;;16.78;64.59;95006.56;5110891;28;20394;-76
2022/09/09 02:21:59;;;;;;;9.20;8.10;;;;;;;16.74;65.03;95010.44;5093937;28;20095;-76
2022/09/09 02:24:24;;;;;;;9.95;8.23;;;;;;;16.63;65.17;95008.97;5110773;28;20119;-76
2022/09/09 02:26:52;;;;;;;9.15;8.25;;;;;;;16.63;65.44;95005.50;5101876;27;20046;-76
2022/09/09 02:29:30;;;;;;;9.70;7.85;;;;;;;16.62;65.19;94982.88;5114306;27;20031;-76
2022/09/09 02:31:57;;;;;;;8.95;8.10;;;;;;;16.60;65.27;94987.47;5132240;27;20023;-76
2022/09/09 02:34:24;;;;;;;8.75;7.85;;;;;;;16.58;65.00;94984.19;5131040;27;20030;-76
2022/09/09 02:36:49;;;;;;;12.40;7.90;;;;;;;16.65;64.75;94990.44;5098009;28;20410;-76
2022/09/09 02:39:14;;;;;;;10.90;8.10;;;;;;;16.65;64.83;94990.44;5093332;28;20031;-76
2022/09/09 02:41:41;;;;;;;10.27;7.57;;;;;;;16.64;64.70;95001.91;5124718;27;20038;-76
2022/09/09 02:44:17;;;;;;;8.70;7.90;;;;;;;16.65;64.95;95006.97;5113740;27;20493;-76
2022/09/09 02:46:51;;;;;;;8.95;8.05;;;;;;;16.61;64.64;94989.13;5130972;27;20088;-76
2022/09/09 02:49:32;;;;;;;9.80;7.55;;;;;;;16.67;64.68;95004.22;5126701;27;20034;-76
2022/09/09 02:51:57;;;;;;;8.13;7.40;;;;;;;16.65;64.82;95000.91;5111428;28;20544;-76
2022/09/09 02:54:30;;;;;;;9.25;8.23;;;;;;;16.58;64.87;95006.00;5111542;28;20131;-76
2022/09/09 02:56:56;;;;;;;9.02;7.70;;;;;;;16.61;64.77;95016.16;5110293;28;20027;-76
2022/09/09 02:59:21;;;;;;;8.35;7.55;;;;;;;16.59;64.63;95006.81;5104873;27;20107;-76
2022/09/09 03:01:47;;;;;;;10.55;7.78;;;;;;;16.65;64.88;95009.59;5113543;27;20023;-76
2022/09/09 03:04:13;;;;;;;8.43;7.40;;;;;;;16.62;64.69;94996.00;5130846;28;20035;-76
2022/09/09 03:06:38;;;;;;;9.00;7.35;;;;;;;16.65;64.26;94990.44;5130532;27;20447;-76
2022/09/09 03:09:04;;;;;;;8.35;7.55;;;;;;;16.73;64.19;94999.13;5112217;28;20461;-76
2022/09/09 03:11:29;;;;;;;8.88;7.97;;;;;;;16.71;64.11;94997.66;5093124;28;20073;-76
2022/09/09 03:13:55;;;;;;;10.65;8.25;;;;;;;16.72;64.21;95002.75;5110230;28;20031;-76
2022/09/09 03:16:22;;;;;;;7.97;7.18;;;;;;;16.76;64.14;95013.72;5109941;28;20028;-76
2022/09/09 03:18:48;;;;;;;9.18;7.63;;;;;;;16.75;63.76;95002.41;5093314;28;20028;-76
2022/09/09 03:21:14;;;;;;;9.50;7.57;;;;;;;16.73;64.16;95004.38;5111188;28;20032;-76
2022/09/09 03:23:39;;;;;;;8.40;7.60;;;;;;;16.77;64.02;95014.56;5093378;28;20038;-76
2022/09/09 03:26:05;;;;;;;8.35;7.55;;;;;;;16.73;64.03;95020.13;5076054;28;20031;-76
2022/09/09 03:28:31;;;;;;;9.00;7.78;;;;;;;16.64;64.31;95015.84;5116707;28;20499;-76
2022/09/09 03:31:04;;;;;;;8.20;7.40;;;;;;;16.65;64.26;95014.03;5131948;27;20626;-76
2022/09/09 03:33:29;;;;;;;8.90;8.00;;;;;;;16.53;64.30;95000.41;5130481;28;20091;-75
2022/09/09 03:35:56;;;;;;;8.85;7.80;;;;;;;16.50;64.75;95008.59;5098520;28;20039;-75
2022/09/09 03:38:25;;;;;;;8.10;7.30;;;;;;;16.48;64.99;95013.97;5111166;28;20023;-75
2022/09/09 03:40:53;;;;;;;8.70;7.80;;;;;;;16.53;64.49;95016.94;5109741;28;20027;-75
2022/09/09 03:43:19;;;;;;;8.05;7.32;;;;;;;16.58;64.24;95023.53;5110976;28;20208;-75
2022/09/09 03:45:47;;;;;;;8.45;7.50;;;;;;;16.66;64.19;95020.91;5128884;27;20420;-75
2022/09/09 03:48:13;;;;;;;8.73;7.28;;;;;;;16.66;64.30;95018.28;5129021;28;20019;-75
2022/09/09 03:50:39;;;;;;;8.25;7.45;;;;;;;16.66;64.33;95011.25;5127912;28;20054;-75
2022/09/09 03:53:05;;;;;;;8.55;7.60;;;;;;;16.61;64.51;95010.09;5132440;27;20035;-75
2022/09/09 03:55:32;;;;;;;8.77;7.88;;;;;;;16.57;64.56;95008.75;5132683;27;20023;-75
2022/09/09 03:57:57;;;;;;;7.93;7.10;;;;;;;16.63;64.55;95013.34;5098802;27;20023;-75
2022/09/09 04:00:23;;;;;;;8.80;7.68;;;;;;;16.58;64.58;95010.41;5132438;27;20523;-75
2022/09/09 04:02:49;;;;;;;8.80;7.90;;;;;;;16.52;64.59;95010.06;5132514;27;20023;-75
2022/09/09 04:05:15;;;;;;;8.38;7.57;;;;;;;16.53;64.55;95019.56;5096058;27;20028;-75
2022/09/09 04:07:40;;;;;;;8.52;7.65;;;;;;;16.51;64.91;95026.75;5112533;27;20393;-76
2022/09/09 04:10:08;;;;;;;12.00;7.30;;;;;;;16.50;64.73;95029.56;5096443;27;20092;-76
2022/09/09 04:12:34;;;;;;;10.60;7.50;;;;;;;16.45;65.23;95022.16;5127263;27;20510;-76
2022/09/09 04:15:01;;;;;;;10.88;7.82;;;;;;;16.41;65.33;95026.09;5132019;27;20031;-76
2022/09/09 04:17:27;;;;;;;9.30;8.40;;;;;;;16.35;65.72;95021.44;5133754;27;20024;-76
2022/09/09 04:19:53;;;;;;;10.25;7.72;;;;;;;16.39;65.48;95030.66;5132312;27;20091;-76
2022/09/09 04:22:18;;;;;;;8.27;7.07;;;;;;;16.38;65.50;95015.91;5115005;27;20522;-77
2022/09/09 04:24:43;;;;;;;9.18;7.70;;;;;;;16.47;65.37;95019.38;5132139;27;20030;-76
2022/09/09 04:27:09;;;;;;;8.70;7.60;;;;;;;16.49;65.35;95020.03;5133424;27;20019;-76
2022/09/09 04:29:34;;;;;;;8.77;7.38;;;;;;;16.49;65.08;95007.75;5133292;27;20530;-76
2022/09/09 04:32:00;;;;;;;8.63;7.55;;;;;;;16.59;64.98;95027.78;5131896;27;20028;-76
2022/09/09 04:34:25;;;;;;;8.13;7.28;;;;;;;16.60;64.78;95019.75;5097941;27;20548;-77
2022/09/09 04:36:51;;;;;;;8.20;7.40;;;;;;;16.64;64.69;95020.28;5131984;27;20400;-76
2022/09/09 04:39:17;;;;;;;8.55;6.95;;;;;;;16.66;64.42;95018.28;5114752;27;20031;-76
2022/09/09 04:41:42;;;;;;;8.50;7.55;;;;;;;16.71;64.42;95031.75;5114727;27;20047;-76
2022/09/09 04:44:09;;;;;;;8.75;7.43;;;;;;;16.71;64.13;95031.75;5113888;27;20062;-76
2022/09/09 04:46:35;;;;;;;8.10;7.30;;;;;;;16.71;64.09;95037.00;5129247;27;20031;-76
2022/09/09 04:49:00;;;;;;;7.90;7.20;;;;;;;16.77;63.78;95041.66;5134254;27;20084;-76
2022/09/09 04:51:26;;;;;;;8.43;7.40;;;;;;;16.74;64.08;95045.38;5115996;27;20428;-76
2022/09/09 04:53:53;;;;;;;10.32;7.10;;;;;;;16.77;64.40;95036.41;5133188;27;20030;-76
2022/09/09 04:56:19;;;;;;;9.15;7.70;;;;;;;16.82;63.86;95023.59;5134474;27;20023;-76
2022/09/09 04:58:45;;;;;;;8.55;7.55;;;;;;;16.83;63.54;95020.03;5134092;27;20034;-76
2022/09/09 05:01:18;;;;;;;8.02;7.22;;;;;;;18.01;60.01;95003.97;5133190;27;20031;-76
2022/09/09 05:03:47;;;;;;;7.32;6.63;;;;;;;19.24;56.30;95006.88;5131949;27;20034;-76
2022/09/09 05:06:17;;;;;;;7.10;6.40;;;;;;;20.09;53.50;95006.66;5132807;27;20099;-77
2022/09/09 05:08:43;;;;;;;6.63;6.03;;;;;;;20.78;51.44;95000.25;5128174;27;20022;-77
2022/09/09 05:11:22;;;;;;;7.57;6.20;;;;;;;21.46;49.68;94992.88;5130249;27;20436;-77
2022/09/09 05:13:48;;;;;;;8.07;5.70;;;;;;;22.08;47.73;94993.94;5131265;27;20034;-77
2022/09/09 05:16:13;;;;;;;6.30;5.25;;;;;;;22.64;46.13;94987.75;5111083;27;20046;-77
2022/09/09 05:18:39;;;;;;;7.18;5.30;;;;;;;23.10;44.84;94985.28;5107524;27;20485;-77
2022/09/09 05:21:06;;;;;;;5.90;5.10;;;;;;;23.59;43.56;94994.72;5112789;27;20032;-77
2022/09/09 05:23:32;;;;;;;6.13;5.28;;;;;;;23.73;43.38;94994.78;5109221;27;20027;-77
2022/09/09 05:25:58;;;;;;;7.28;5.55;;;;;;;23.49;43.76;94999.63;5105619;27;20333;-77
2022/09/09 05:28:25;;;;;;;5.32;4.82;;;;;;;22.82;45.31;94987.22;5109283;27;20024;-76
2022/09/09 05:31:04;;;;;;;5.88;4.97;;;;;;;22.46;46.27;94980.34;5111888;27;20484;-77
2022/09/09 05:33:30;;;;;;;6.82;4.90;;;;;;;22.34;46.49;94980.06;5122182;27;20027;-76
2022/09/09 05:36:01;;;;;;;6.38;5.60;;;;;;;22.11;47.18;94980.31;5109400;27;20035;-77
2022/09/09 05:38:26;;;;;;;6.05;5.35;;;;;;;21.90;47.70;94980.38;5093788;27;20102;-77
2022/09/09 05:40:52;;;;;;;6.72;5.45;;;;;;;21.80;48.14;94973.63;5124712;27;20176;-77
2022/09/09 05:43:22;;;;;;;8.75;5.30;;;;;;;21.70;48.36;94980.25;5123093;27;20047;-76
2022/09/09 05:45:47;;;;;;;7.88;5.45;;;;;;;21.74;49.03;94978.88;5100387;27;20031;-76
2022/09/09 05:48:16;;;;;;;8.55;5.78;;;;;;;21.58;48.92;94966.72;5123836;27;20391;-77
2022/09/09 05:50:42;;;;;;;6.68;5.38;;;;;;;21.64;48.47;94969.41;5125355;27;20077;-77
2022/09/09 05:53:11;;;;;;;6.03;5.35;;;;;;;21.71;48.78;94990.63;5129798;27;20031;-77
2022/09/09 05:55:36;;;;;;;6.75;5.70;;;;;;;21.74;49.30;95005.28;5112916;27;20031;-77
2022/09/09 05:58:02;;;;;;;7.88;5.38;;;;;;;21.56;49.29;94995.16;5129545;27;20031;-77
2022/09/09 06:00:29;;;;;;;7.03;5.60;;;;;;;21.68;49.71;94996.31;5128396;27;20023;-77
2022/09/09 06:02:55;;;;;;;5.93;5.32;;;;;;;21.82;49.30;94998.03;5122531;27;20059;-77
2022/09/09 06:05:22;;;;;;;6.35;4.93;;;;;;;21.89;47.81;94999.91;5109090;28;20488;-77
2022/09/09 06:07:48;;;;;;;7.03;5.43;;;;;;;21.91;47.37;95005.84;5103718;27;20459;-76
2022/09/09 06:10:13;;;;;;;10.65;5.55;;;;;;;22.08;47.40;95018.56;5093318;27;20039;-77
2022/09/09 06:12:39;;;;;;;9.73;5.70;;;;;;;22.06;46.41;95009.19;5124481;27;20084;-77
2022/09/09 06:15:05;;;;;;;7.13;5.50;;;;;;;22.16;46.27;95024.72;5109753;27;20038;-78
2022/09/09 06:17:31;;;;;;;7.30;6.10;;;;;;;21.89;47.01;95018.41;5112830;27;20489;-75
2022/09/09 06:19:56;;;;;;;8.50;6.18;;;;;;;21.85;47.18;95015.34;5130793;27;20038;-76
2022/09/09 06:22:22;;;;;;;7.45;6.60;;;;;;;21.67;47.95;95012.34;5127012;27;20038;-76
2022/09/09 06:24:47;;;;;;;14.63;6.88;;;;;;;21.73;48.63;95007.13;5118946;27;20519;-76
2022/09/09 06:27:13;;;;;;;9.13;6.30;;;;;;;21.88;48.47;95003.56;5128797;27;20515;-76
2022/09/09 06:29:39;;;;;;;8.32;6.70;;;;;;;21.86;47.46;95004.56;5129040;27;20412;-76
2022/09/09 06:32:04;;;;;;;10.43;6.78;;;;;;;21.79;48.46;95003.72;5114363;27;20032;-76
2022/09/09 06:34:30;;;;;;;6.68;5.90;;;;;;;21.84;47.76;95006.59;5112745;27;20063;-76
2022/09/09 06:36:57;;;;;;;7.30;6.57;;;;;;;21.97;47.44;95013.00;5124087;27;20504;-76
2022/09/09 06:39:23;;;;;;;8.23;5.85;;;;;;;21.97;46.85;95000.56;5107499;28;20016;-76
2022/09/09 06:41:49;;;;;;;7.72;5.80;;;;;;;22.12;46.26;94997.00;5091370;28;20049;-76
2022/09/09 06:44:15;;;;;;;10.05;6.13;;;;;;;22.17;46.45;95003.34;5109258;28;20126;-76
2022/09/09 06:46:40;;;;;;;6.38;5.78;;;;;;;22.32;46.28;95002.47;5074591;28;20110;-76
2022/09/09 06:49:07;;;;;;;9.98;6.32;;;;;;;22.26;46.37;95004.88;5109945;28;20024;-76
2022/09/09 06:51:35;;;;;;;9.05;6.05;;;;;;;22.46;46.19;94998.88;5075588;28;20114;-76
2022/09/09 06:54:02;;;;;;;9.63;5.88;;;;;;;22.66;45.45;94996.31;5110076;28;20035;-76
2022/09/09 06:56:39;;;;;;;14.32;6.10;;;;;;;22.81;45.02;95001.47;5093446;28;20031;-76
2022/09/09 07:18:44;;;;;;;12.55;8.70;;;;;;;23.75;43.79;95008.66;5149560;27;20750;-73
2022/09/09 07:21:13;;;;;;;7.47;6.28;;;;;;;23.78;43.08;95010.88;5149884;27;20039;-73
2022/09/09 07:23:38;;;;;;;10.95;6.35;;;;;;;23.81;43.05;95011.28;5149625;27;20106;-73
2022/09/09 07:26:11;;;;;;;11.60;6.22;;;;;;;23.84;42.72;95007.41;5148493;27;20123;-73
2022/09/09 07:28:37;;;;;;;10.02;6.43;;;;;;;23.82;42.49;95004.16;5114401;27;20571;-73
2022/09/09 07:31:03;;;;;;;8.00;5.97;;;;;;;23.75;42.51;95004.16;5113866;27;20037;-73
2022/09/09 07:33:30;;;;;;;8.65;5.70;;;;;;;23.80;42.63;95000.91;5148241;27;20065;-73
2022/09/09 07:36:06;;;;;;;13.10;6.88;;;;;;;23.89;43.29;95001.50;5148206;27;20027;-73
2022/09/09 07:38:37;;;;;;;9.55;5.95;;;;;;;23.92;42.00;94993.13;5131016;27;20030;-73
2022/09/09 07:41:06;;;;;;;9.18;6.18;;;;;;;23.87;42.36;94993.75;5148521;27;20023;-74
2022/09/09 07:43:33;;;;;;;12.75;6.30;;;;;;;23.96;42.28;94997.84;5148397;27;20035;-74
2022/09/09 07:45:59;;;;;;;7.45;5.43;;;;;;;24.04;41.99;94997.63;5147873;27;20469;-73
2022/09/09 07:48:24;;;;;;;9.45;6.10;;;;;;;24.19;41.63;95004.53;5130590;27;20030;-73
2022/09/09 07:50:50;;;;;;;8.68;5.43;;;;;;;24.29;42.36;95012.88;5149173;27;20506;-74
2022/09/09 07:53:16;;;;;;;7.13;5.70;;;;;;;24.35;41.68;95006.75;5147825;27;20031;-73
2022/09/09 07:55:42;;;;;;;8.55;5.30;;;;;;;24.40;42.09;95009.59;5147882;27;20038;-73
2022/09/09 07:58:08;;;;;;;8.20;5.50;;;;;;;24.56;41.51;95013.66;5147896;27;20041;-73
2022/09/09 08:00:33;;;;;;;11.18;5.70;;;;;;;24.53;40.77;94993.66;5148959;27;20488;-74
2022/09/09 08:03:00;;;;;;;7.55;5.57;;;;;;;24.62;41.23;95009.34;5147792;27;20404;-73
2022/09/09 08:05:26;;;;;;;10.20;5.90;;;;;;;24.58;40.67;94992.22;5113766;27;20029;-74
2022/09/09 08:07:51;;;;;;;7.70;5.68;;;;;;;24.58;40.94;94995.69;5113277;27;20428;-73
2022/09/09 08:10:17;;;;;;;8.38;5.60;;;;;;;24.73;41.20;94998.09;5147573;27;20039;-73
2022/09/09 08:12:43;;;;;;;8.63;5.53;;;;;;;24.82;41.35;94996.00;5130517;27;20515;-73
2022/09/09 08:15:08;;;;;;;11.35;5.85;;;;;;;24.85;40.53;95001.72;5113111;27;20035;-73
2022/09/09 08:17:34;;;;;;;7.50;5.63;;;;;;;24.89;40.70;94996.81;5111100;27;20043;-73
2022/09/09 08:20:04;;;;;;;8.15;5.53;;;;;;;24.90;40.41;94996.56;5116279;27;20504;-73
2022/09/09 08:22:29;;;;;;;10.45;5.55;;;;;;;24.89;40.89;94989.63;5116978;27;20530;-73
2022/09/09 08:24:55;;;;;;;6.93;5.43;;;;;;;25.00;40.51;94995.31;5133766;27;20031;-73
2022/09/09 08:27:21;;;;;;;8.48;5.47;;;;;;;24.91;40.53;94986.78;5133354;27;20454;-73
2022/09/09 08:29:46;;;;;;;9.95;5.72;;;;;;;25.10;41.09;94985.88;5116296;27;20023;-73
2022/09/09 08:32:12;;;;;;;10.43;5.47;;;;;;;25.24;40.29;94986.63;5134766;27;20031;-73
2022/09/09 08:34:38;;;;;;;8.70;5.25;;;;;;;25.27;40.05;94986.22;5133326;27;20050;-73
2022/09/09 08:37:03;;;;;;;11.52;5.82;;;;;;;25.32;39.90;94982.88;5116131;27;20489;-73
2022/09/09 08:39:29;;;;;;;8.23;5.57;;;;;;;25.39;40.34;94983.66;5133228;27;20024;-73
2022/09/09 08:42:00;;;;;;;8.82;5.90;;;;;;;25.47;40.69;94985.25;5134547;27;20445;-73
2022/09/09 08:45:11;;;;;;;11.98;5.35;;;;;;;25.59;40.78;94996.81;5133068;27;20072;-72
2022/09/09 08:47:49;;;;;;;7.90;5.30;;;;;;;25.62;40.58;94988.41;5123571;27;20043;-73
2022/09/09 08:50:24;;;;;;;7.72;5.75;;;;;;;25.64;39.81;94987.16;5133062;27;20015;-73
2022/09/09 08:52:51;;;;;;;8.15;5.22;;;;;;;25.66;39.77;94986.97;5133058;27;20035;-73
2022/09/09 08:55:41;;;;;;;6.30;5.43;;;;;;;25.72;40.77;94983.44;5134066;27;20019;-73
2022/09/09 08:58:15;;;;;;;7.78;5.40;;;;;;;25.68;39.49;94976.91;5134504;27;20043;-72
2022/09/09 09:01:08;;;;;;;7.22;5.43;;;;;;;25.78;39.19;94977.22;5132879;27;20035;-73
2022/09/09 09:03:42;;;;;;;7.05;5.47;;;;;;;25.78;39.62;94979.91;5134031;27;20037;-73
2022/09/09 09:06:15;;;;;;;9.93;5.85;;;;;;;25.79;40.52;94978.84;5132523;27;20122;-73
2022/09/09 09:08:55;;;;;;;8.02;5.57;;;;;;;25.70;39.26;94974.84;5133937;27;20507;-73
2022/09/09 09:11:22;;;;;;;6.40;5.45;;;;;;;25.70;39.97;94976.69;5133878;27;20035;-72
2022/09/09 09:13:50;;;;;;;6.25;5.60;;;;;;;25.73;40.34;94971.75;5115550;27;20031;-73
2022/09/09 09:16:21;;;;;;;7.07;5.35;;;;;;;25.78;40.49;94985.22;5133640;27;20552;-72
2022/09/09 09:18:47;;;;;;;7.15;5.53;;;;;;;25.83;40.33;94981.94;5133731;27;20501;-73
2022/09/09 09:21:35;;;;;;;8.50;5.55;;;;;;;25.86;39.96;94978.84;5133599;27;20039;-72
2022/09/09 09:24:01;;;;;;;8.95;5.55;;;;;;;25.92;39.21;94971.84;5103400;27;20035;-73
2022/09/09 09:26:34;;;;;;;9.73;5.78;;;;;;;25.92;39.81;94974.50;5133531;27;20038;-73
2022/09/09 09:29:00;;;;;;;9.45;5.75;;;;;;;25.90;39.75;94971.22;5115582;27;20028;-73
2022/09/09 09:31:26;;;;;;;6.63;5.55;;;;;;;25.83;39.86;94960.66;5131363;27;20035;-73
2022/09/09 09:33:55;;;;;;;7.60;5.97;;;;;;;25.89;40.25;94966.97;5132213;27;20027;-73
2022/09/09 09:36:33;;;;;;;9.20;5.75;;;;;;;25.90;39.36;94973.91;5098072;27;20246;-72
2022/09/09 09:39:00;;;;;;;8.40;5.75;;;;;;;25.96;39.95;94976.47;5131987;27;20027;-72
2022/09/09 09:41:30;;;;;;;9.13;5.70;;;;;;;25.90;39.70;94968.56;5115014;27;20026;-73
2022/09/09 09:43:55;;;;;;;8.73;5.50;;;;;;;25.96;39.90;94973.00;5115063;27;20027;-73
2022/09/09 09:46:26;;;;;;;8.90;5.55;;;;;;;25.98;39.64;94968.28;5133066;27;20034;-73
2022/09/09 09:48:58;;;;;;;7.43;5.47;;;;;;;25.99;40.25;94961.94;5131979;27;20035;-73
2022/09/09 09:51:24;;;;;;;8.15;5.63;;;;;;;25.98;40.06;94958.47;5114569;27;20042;-73
2022/09/09 09:53:52;;;;;;;6.63;5.43;;;;;;;25.93;38.79;94949.50;5133091;27;20318;-72
2022/09/09 09:56:18;;;;;;;8.68;5.20;;;;;;;25.96;38.60;94943.75;5131665;27;20117;-72
2022/09/09 09:58:46;;;;;;;8.85;5.65;;;;;;;25.97;38.51;94948.06;5114357;27;20035;-73
2022/09/09 10:01:29;;;;;;;9.35;5.20;;;;;;;25.97;39.29;94938.22;5132959;27;20034;-73
2022/09/09 10:03:57;;;;;;;6.45;5.40;;;;;;;25.98;39.52;94944.34;5131529;27;20023;-72
2022/09/09 10:06:33;;;;;;;6.43;5.70;;;;;;;25.99;39.69;94935.31;5131360;27;20031;-73
2022/09/09 10:08:59;;;;;;;7.57;5.57;;;;;;;26.10;39.30;94937.25;5097484;27;20114;-73
2022/09/09 10:11:43;;;;;;;8.48;5.35;;;;;;;26.16;39.14;94939.06;5114226;27;20031;-72
2022/09/09 10:14:34;;;;;;;7.45;5.70;;;;;;;26.16;39.43;94947.03;5132594;27;20027;-73
2022/09/09 10:17:09;;;;;;;6.53;5.40;;;;;;;26.18;39.04;94950.28;5131169;27;20058;-73
2022/09/09 10:19:36;;;;;;;7.93;5.30;;;;;;;26.23;39.02;94944.28;5131265;27;20027;-73
2022/09/09 10:22:23;;;;;;;9.63;5.60;;;;;;;26.24;40.02;94954.75;5114324;27;20039;-73
2022/09/09 10:25:10;;;;;;;9.55;6.22;;;;;;;26.20;39.27;94952.72;5132454;27;20054;-73
2022/09/09 10:27:58;;;;;;;8.55;5.65;;;;;;;26.18;39.43;94960.91;5131134;27;20544;-72
2022/09/09 10:30:36;;;;;;;8.07;5.65;;;;;;;26.12;39.26;94951.16;5132263;27;20020;-72
2022/09/09 10:33:08;;;;;;;12.50;6.07;;;;;;;26.16;39.50;94959.50;5131191;27;20062;-73
2022/09/09 10:35:34;;;;;;;10.90;5.97;;;;;;;26.12;39.75;94956.50;5113972;27;20028;-73
2022/09/09 10:38:17;;;;;;;6.38;5.68;;;;;;;26.14;39.86;94959.75;5132587;27;20039;-73
2022/09/09 10:40:56;;;;;;;11.00;5.93;;;;;;;26.16;39.91;94960.34;5113823;27;20030;-73
2022/09/09 10:43:53;;;;;;;6.28;5.43;;;;;;;26.17;39.70;94953.97;5130711;27;20050;-73
2022/09/09 10:46:37;;;;;;;9.68;5.70;;;;;;;26.07;39.94;94959.00;5132089;27;20042;-73
2022/09/09 10:49:25;;;;;;;10.07;5.68;;;;;;;26.02;40.41;94962.31;5132038;27;20024;-72
2022/09/09 10:51:53;;;;;;;8.07;5.47;;;;;;;26.01;40.11;94959.88;5113684;27;20074;-72
2022/09/09 10:54:18;;;;;;;7.80;5.97;;;;;;;25.97;40.39;94961.34;5131902;27;20538;-73
2022/09/09 10:56:45;;;;;;;10.05;5.30;;;;;;;25.99;40.69;94954.78;5132081;27;20031;-73
2022/09/09 10:59:14;;;;;;;9.63;6.05;;;;;;;25.93;40.25;94947.66;5113803;27;20568;-73
2022/09/09 11:01:44;;;;;;;6.60;5.82;;;;;;;25.92;41.38;94951.34;5113947;27;20027;-73
2022/09/09 11:04:24;;;;;;;8.98;5.65;;;;;;;25.92;40.40;94958.53;5130722;27;20034;-73
2022/09/09 11:06:52;;;;;;;11.27;6.38;;;;;;;25.92;40.03;94955.88;5097456;28;20100;-73
2022/09/09 11:09:20;;;;;;;9.25;6.10;;;;;;;25.81;40.84;94960.84;5130515;28;20023;-73
2022/09/09 11:11:56;;;;;;;13.15;6.63;;;;;;;25.80;41.15;94959.22;5131937;27;20064;-73
2022/09/09 11:14:27;;;;;;;8.27;5.68;;;;;;;25.79;41.35;94962.88;5130535;28;20024;-73
2022/09/09 11:17:01;;;;;;;8.98;6.65;;;;;;;25.73;41.15;94961.09;5113886;28;20058;-73
2022/09/09 11:19:40;;;;;;;10.60;6.03;;;;;;;25.76;41.57;94962.53;5130514;28;20019;-73
2022/09/09 11:22:38;;;;;;;11.57;5.97;;;;;;;25.77;41.43;94964.13;5098121;28;20043;-73
2022/09/09 11:25:13;;;;;;;9.60;6.13;;;;;;;25.76;42.61;94957.19;5130425;28;20023;-73
2022/09/09 11:28:00;;;;;;;11.40;6.38;;;;;;;25.81;43.11;94960.03;5097538;28;20043;-73
2022/09/09 11:30:34;;;;;;;8.90;5.93;;;;;;;25.81;42.80;94947.53;5131658;27;20039;-73
2022/09/09 11:33:24;;;;;;;9.63;5.82;;;;;;;25.80;42.17;94945.91;5132090;27;20114;-73
2022/09/09 11:36:17;;;;;;;8.73;6.20;;;;;;;25.69;41.84;94936.00;5130264;27;20466;-73
2022/09/09 11:38:47;;;;;;;9.48;6.38;;;;;;;25.79;42.87;94925.66;5130369;28;20110;-73
2022/09/09 11:41:13;;;;;;;9.27;5.90;;;;;;;25.81;41.21;94920.94;5130564;28;20035;-73
2022/09/09 11:43:39;;;;;;;8.68;6.38;;;;;;;25.86;41.28;94915.00;5096388;28;20031;-73
2022/09/09 11:46:05;;;;;;;10.45;6.55;;;;;;;25.80;41.86;94914.00;5112935;28;20411;-73
2022/09/09 11:48:35;;;;;;;10.20;6.80;;;;;;;25.81;41.15;94917.47;5113069;28;20031;-73
2022/09/09 11:51:08;;;;;;;9.00;6.13;;;;;;;25.79;40.88;94903.56;5130200;27;20119;-73
2022/09/09 11:54:02;;;;;;;7.72;6.30;;;;;;;25.78;45.31;94910.72;5114409;27;20084;-73
2022/09/09 11:56:32;;;;;;;10.85;6.50;;;;;;;25.73;42.23;94886.63;5134004;27;20037;-73
2022/09/09 11:59:05;;;;;;;9.25;6.97;;;;;;;25.71;41.75;94878.03;5117039;27;20027;-73
2022/09/09 12:01:43;;;;;;;9.35;6.70;;;;;;;25.73;42.23;94873.31;5117358;27;20067;-73
2022/09/09 12:04:08;;;;;;;10.57;6.53;;;;;;;25.63;40.96;94873.00;5117648;27;20042;-73
2022/09/09 12:06:46;;;;;;;13.40;6.82;;;;;;;25.68;42.00;94875.81;5135065;27;20378;-73